TimePDT,TemperatureF,Dew PointF,Humidity,Sea Level PressureIn,VisibilityMPH,Wind Direction,Wind SpeedMPH,Gust SpeedMPH,PrecipitationIn,Events,Conditions,WindDirDegrees,DateUTC
12:53 AM,68.0,60.1,76,29.91,10.0,WSW,5.8,-,N/A,,Clear,240,2013-07-01 07:53:00
1:53 AM,66.0,59.0,78,29.91,10.0,WSW,5.8,-,N/A,,Clear,240,2013-07-01 08:53:00
2:53 AM,66.0,59.0,78,29.93,10.0,West,3.5,-,N/A,,Clear,270,2013-07-01 09:53:00
3:53 AM,64.9,59.0,81,29.92,10.0,West,4.6,-,N/A,,Clear,270,2013-07-01 10:53:00
4:53 AM,64.0,59.0,84,29.94,10.0,West,5.8,-,N/A,,Clear,260,2013-07-01 11:53:00
5:53 AM,63.0,59.0,87,29.95,10.0,WSW,5.8,-,N/A,,Clear,240,2013-07-01 12:53:00
6:53 AM,64.9,60.1,84,29.96,10.0,WSW,5.8,-,N/A,,Clear,240,2013-07-01 13:53:00
7:53 AM,68.0,60.1,76,29.97,10.0,SW,4.6,-,N/A,,Clear,230,2013-07-01 14:53:00
8:53 AM,72.0,62.1,71,29.97,10.0,Calm,Calm,-,N/A,,Clear,0,2013-07-01 15:53:00
9:53 AM,75.0,63.0,66,29.97,10.0,WNW,4.6,-,N/A,,Clear,290,2013-07-01 16:53:00
10:53 AM,80.1,63.0,56,29.96,10.0,Calm,Calm,-,N/A,,Clear,0,2013-07-01 17:53:00
11:53 AM,82.9,63.0,51,29.96,10.0,Calm,Calm,-,N/A,,Clear,0,2013-07-01 18:53:00
12:53 PM,84.9,63.0,48,29.96,10.0,NE,5.8,-,N/A,,Clear,50,2013-07-01 19:53:00
1:53 PM,86.0,64.0,48,29.96,10.0,SE,5.8,-,N/A,,Clear,130,2013-07-01 20:53:00
2:53 PM,89.1,64.9,45,29.95,10.0,Variable,4.6,-,N/A,,Clear,0,2013-07-01 21:53:00
3:53 PM,91.0,66.0,44,29.95,10.0,Variable,5.8,-,N/A,,Clear,0,2013-07-01 22:53:00
4:53 PM,91.0,66.0,44,29.94,10.0,SE,3.5,-,N/A,,Clear,130,2013-07-01 23:53:00
5:53 PM,89.1,66.0,46,29.94,10.0,SW,11.5,-,N/A,,Clear,230,2013-07-02 00:53:00
6:53 PM,87.1,64.9,48,29.94,10.0,SSW,8.1,-,N/A,,Clear,210,2013-07-02 01:53:00
7:53 PM,81.0,64.0,56,29.95,10.0,SW,13.8,-,N/A,,Clear,220,2013-07-02 02:53:00
8:53 PM,75.9,63.0,64,29.96,10.0,WSW,11.5,-,N/A,,Clear,240,2013-07-02 03:53:00
9:53 PM,72.0,62.1,71,29.98,10.0,WSW,6.9,-,N/A,,Clear,250,2013-07-02 04:53:00
10:53 PM,70.0,62.1,76,29.99,10.0,WSW,6.9,-,N/A,,Clear,250,2013-07-02 05:53:00
11:53 PM,68.0,61.0,78,30.01,10.0,WSW,10.4,-,N/A,,Clear,250,2013-07-02 06:53:00